sensor_id;sensor_type;location;lat;lon;timestamp;pressure;altitude;pressure_sealevel;temperature;humidity
76358;BME280;65185;21.060;105.826;2023-02-01T00:01:09;101325.03;;;16.61;100.00
76358;BME280;65185;21.060;105.826;2023-02-01T00:03:36;101333.72;;;16.58;100.00
76358;BME280;65185;21.060;105.826;2023-02-01T00:06:03;101338.59;;;16.56;100.00
76358;BME280;65185;21.060;105.826;2023-02-01T00:08:30;101339.69;;;16.55;100.00
76358;BME280;65185;21.060;105.826;2023-02-01T00:11:04;101343.22;;;16.56;100.00
76358;BME280;65185;21.060;105.826;2023-02-01T00:13:33;101344.31;;;16.55;100.00
76358;BME280;65185;21.060;105.826;2023-02-01T00:16:21;101350.03;;;16.53;100.00
76358;BME280;65185;21.060;105.826;2023-02-01T00:18:50;101361.13;;;16.52;100.00
76358;BME280;65185;21.060;105.826;2023-02-01T00:21:19;101361.13;;;16.52;100.00
76358;BME280;65185;21.060;105.826;2023-02-01T00:23:47;101366.56;;;16.52;100.00
76358;BME280;65185;21.060;105.826;2023-02-01T00:26:41;101368.19;;;16.53;100.00
76358;BME280;65185;21.060;105.826;2023-02-01T00:29:08;101362.75;;;16.53;100.00
76358;BME280;65185;21.060;105.826;2023-02-01T00:31:35;101373.03;;;16.56;100.00
76358;BME280;65185;21.060;105.826;2023-02-01T00:34:03;101373.84;;;16.56;100.00
76358;BME280;65185;21.060;105.826;2023-02-01T00:36:30;101369.81;;;16.59;100.00
76358;BME280;65185;21.060;105.826;2023-02-01T00:38:57;101377.69;;;16.60;100.00
76358;BME280;65185;21.060;105.826;2023-02-01T00:41:24;101380.09;;;16.62;100.00
76358;BME280;65185;21.060;105.826;2023-02-01T00:43:51;101385.81;;;16.60;100.00
76358;BME280;65185;21.060;105.826;2023-02-01T00:46:19;101389.03;;;16.62;100.00
76358;BME280;65185;21.060;105.826;2023-02-01T00:48:48;101386.59;;;16.61;100.00
76358;BME280;65185;21.060;105.826;2023-02-01T00:51:20;101388.78;;;16.59;100.00
76358;BME280;65185;21.060;105.826;2023-02-01T00:53:47;101395.28;;;16.58;100.00
76358;BME280;65185;21.060;105.826;2023-02-01T00:56:15;101393.38;;;16.58;100.00
76358;BME280;65185;21.060;105.826;2023-02-01T00:58:42;101396.09;;;16.58;100.00
76358;BME280;65185;21.060;105.826;2023-02-01T01:03:39;101404.50;;;16.62;100.00
76358;BME280;65185;21.060;105.826;2023-02-01T01:06:09;101414.50;;;16.67;100.00
76358;BME280;65185;21.060;105.826;2023-02-01T01:08:37;101415.28;;;16.72;100.00
76358;BME280;65185;21.060;105.826;2023-02-01T01:11:08;101422.06;;;16.75;100.00
76358;BME280;65185;21.060;105.826;2023-02-01T01:13:36;101420.94;;;16.81;100.00
76358;BME280;65185;21.060;105.826;2023-02-01T01:16:04;101428.50;;;16.84;100.00
76358;BME280;65185;21.060;105.826;2023-02-01T01:18:32;101430.41;;;16.88;100.00
76358;BME280;65185;21.060;105.826;2023-02-01T01:21:01;101431.72;;;16.91;100.00
76358;BME280;65185;21.060;105.826;2023-02-01T01:23:28;101440.91;;;16.95;100.00
76358;BME280;65185;21.060;105.826;2023-02-01T01:25:55;101437.38;;;16.99;100.00
76358;BME280;65185;21.060;105.826;2023-02-01T01:28:22;101438.44;;;17.03;100.00
76358;BME280;65185;21.060;105.826;2023-02-01T01:30:49;101453.63;;;17.04;100.00
76358;BME280;65185;21.060;105.826;2023-02-01T01:33:16;101448.44;;;17.08;100.00
76358;BME280;65185;21.060;105.826;2023-02-01T01:35:43;101457.63;;;17.12;100.00
76358;BME280;65185;21.060;105.826;2023-02-01T01:38:11;101461.44;;;17.16;100.00
76358;BME280;65185;21.060;105.826;2023-02-01T01:40:38;101456.25;;;17.20;100.00
76358;BME280;65185;21.060;105.826;2023-02-01T01:43:15;101465.44;;;17.24;100.00
76358;BME280;65185;21.060;105.826;2023-02-01T01:45:43;101472.22;;;17.26;100.00
76358;BME280;65185;21.060;105.826;2023-02-01T01:48:28;101474.38;;;17.24;100.00
76358;BME280;65185;21.060;105.826;2023-02-01T01:51:06;101469.50;;;17.26;100.00
76358;BME280;65185;21.060;105.826;2023-02-01T01:53:48;101487.41;;;17.27;100.00
76358;BME280;65185;21.060;105.826;2023-02-01T01:56:18;101490.13;;;17.27;100.00
76358;BME280;65185;21.060;105.826;2023-02-01T01:58:46;101489.81;;;17.29;100.00
76358;BME280;65185;21.060;105.826;2023-02-01T02:01:13;101492.81;;;17.32;100.00
76358;BME280;65185;21.060;105.826;2023-02-01T02:03:42;101499.00;;;17.38;100.00
76358;BME280;65185;21.060;105.826;2023-02-01T02:06:25;101503.88;;;17.41;100.00
76358;BME280;65185;21.060;105.826;2023-02-01T02:08:54;101508.44;;;17.45;100.00
76358;BME280;65185;21.060;105.826;2023-02-01T02:11:21;101502.75;;;17.47;100.00
76358;BME280;65185;21.060;105.826;2023-02-01T02:13:53;101510.59;;;17.49;100.00
76358;BME280;65185;21.060;105.826;2023-02-01T02:30:22;101495.31;;;17.63;100.00
76358;BME280;65185;21.060;105.826;2023-02-01T02:38:26;101506.19;;;17.63;100.00
76358;BME280;65185;21.060;105.826;2023-02-01T02:43:31;101505.63;;;17.66;100.00
76358;BME280;65185;21.060;105.826;2023-02-01T02:46:24;101521.34;;;17.69;100.00
76358;BME280;65185;21.060;105.826;2023-02-01T02:49:19;101516.13;;;17.72;100.00
76358;BME280;65185;21.060;105.826;2023-02-01T02:51:58;101524.50;;;17.81;100.00
76358;BME280;65185;21.060;105.826;2023-02-01T02:54:48;101522.31;;;17.83;100.00
76358;BME280;65185;21.060;105.826;2023-02-01T02:57:22;101519.06;;;17.81;100.00
76358;BME280;65185;21.060;105.826;2023-02-01T03:00:14;101510.38;;;17.79;100.00
76358;BME280;65185;21.060;105.826;2023-02-01T03:03:00;101510.97;;;17.76;100.00
76358;BME280;65185;21.060;105.826;2023-02-01T03:05:47;101509.56;;;17.78;100.00
76358;BME280;65185;21.060;105.826;2023-02-01T03:08:20;101505.50;;;17.81;100.00
76358;BME280;65185;21.060;105.826;2023-02-01T03:11:04;101509.50;;;17.89;100.00
76358;BME280;65185;21.060;105.826;2023-02-01T03:18:42;101511.69;;;17.86;100.00
76358;BME280;65185;21.060;105.826;2023-02-01T03:21:22;101505.72;;;17.84;100.00
76358;BME280;65185;21.060;105.826;2023-02-01T03:23:57;101494.28;;;17.88;100.00
76358;BME280;65185;21.060;105.826;2023-02-01T03:26:30;101481.16;;;17.95;100.00
76358;BME280;65185;21.060;105.826;2023-02-01T03:29:12;101491.19;;;17.99;100.00
76358;BME280;65185;21.060;105.826;2023-02-01T03:31:41;101491.16;;;18.04;100.00
76358;BME280;65185;21.060;105.826;2023-02-01T03:34:10;101492.13;;;18.13;100.00
76358;BME280;65185;21.060;105.826;2023-02-01T03:36:40;101494.78;;;18.18;100.00
76358;BME280;65185;21.060;105.826;2023-02-01T03:42:43;101493.09;;;18.27;100.00
76358;BME280;65185;21.060;105.826;2023-02-01T03:45:34;101490.06;;;18.29;100.00
76358;BME280;65185;21.060;105.826;2023-02-01T03:48:02;101482.16;;;18.33;100.00
76358;BME280;65185;21.060;105.826;2023-02-01T04:11:34;101456.16;;;19.44;100.00
76358;BME280;65185;21.060;105.826;2023-02-01T04:17:17;101441.28;;;19.36;100.00
76358;BME280;65185;21.060;105.826;2023-02-01T04:20:21;101443.88;;;19.28;100.00
76358;BME280;65185;21.060;105.826;2023-02-01T04:23:30;101436.59;;;19.23;100.00
76358;BME280;65185;21.060;105.826;2023-02-01T04:26:20;101434.19;;;19.22;100.00
76358;BME280;65185;21.060;105.826;2023-02-01T04:28:48;101419.44;;;19.23;100.00
76358;BME280;65185;21.060;105.826;2023-02-01T04:31:19;101418.84;;;19.26;100.00
76358;BME280;65185;21.060;105.826;2023-02-01T04:33:55;101413.97;;;19.41;100.00
76358;BME280;65185;21.060;105.826;2023-02-01T04:36:23;101417.88;;;19.54;100.00
76358;BME280;65185;21.060;105.826;2023-02-01T04:38:50;101410.53;;;19.68;100.00
76358;BME280;65185;21.060;105.826;2023-02-01T04:41:18;101393.25;;;19.73;100.00
76358;BME280;65185;21.060;105.826;2023-02-01T04:43:46;101390.16;;;19.79;100.00
76358;BME280;65185;21.060;105.826;2023-02-01T04:46:13;101388.03;;;19.76;100.00
76358;BME280;65185;21.060;105.826;2023-02-01T04:48:40;101381.38;;;19.82;100.00
76358;BME280;65185;21.060;105.826;2023-02-01T04:51:08;101373.69;;;19.84;100.00
76358;BME280;65185;21.060;105.826;2023-02-01T04:53:35;101367.56;;;19.92;100.00
76358;BME280;65185;21.060;105.826;2023-02-01T04:56:02;101363.00;;;20.02;100.00
76358;BME280;65185;21.060;105.826;2023-02-01T04:58:29;101348.16;;;20.08;100.00
76358;BME280;65185;21.060;105.826;2023-02-01T05:00:56;101345.53;;;20.03;100.00
76358;BME280;65185;21.060;105.826;2023-02-01T05:03:23;101337.88;;;20.05;100.00
76358;BME280;65185;21.060;105.826;2023-02-01T05:06:02;101328.78;;;20.09;100.00
76358;BME280;65185;21.060;105.826;2023-02-01T05:08:31;101330.78;;;20.04;100.00
76358;BME280;65185;21.060;105.826;2023-02-01T05:10:58;101316.75;;;20.10;100.00
76358;BME280;65185;21.060;105.826;2023-02-01T05:13:29;101312.38;;;20.23;100.00
76358;BME280;65185;21.060;105.826;2023-02-01T05:16:15;101314.63;;;20.21;100.00
76358;BME280;65185;21.060;105.826;2023-02-01T05:18:43;101294.28;;;20.27;100.00
76358;BME280;65185;21.060;105.826;2023-02-01T05:21:09;101291.47;;;20.32;100.00
76358;BME280;65185;21.060;105.826;2023-02-01T05:23:37;101283.13;;;20.51;100.00
76358;BME280;65185;21.060;105.826;2023-02-01T05:26:24;101275.63;;;20.56;100.00
76358;BME280;65185;21.060;105.826;2023-02-01T05:28:51;101269.94;;;20.44;100.00
76358;BME280;65185;21.060;105.826;2023-02-01T05:31:19;101262.84;;;20.43;100.00
76358;BME280;65185;21.060;105.826;2023-02-01T05:33:45;101258.38;;;20.47;100.00
76358;BME280;65185;21.060;105.826;2023-02-01T05:36:13;101251.44;;;20.41;100.00
76358;BME280;65185;21.060;105.826;2023-02-01T05:38:40;101247.28;;;20.44;100.00
76358;BME280;65185;21.060;105.826;2023-02-01T05:41:11;101249.00;;;20.40;100.00
76358;BME280;65185;21.060;105.826;2023-02-01T05:43:56;101236.69;;;20.42;100.00
76358;BME280;65185;21.060;105.826;2023-02-01T05:46:23;101230.91;;;20.44;100.00
76358;BME280;65185;21.060;105.826;2023-02-01T05:48:50;101232.59;;;20.53;100.00
76358;BME280;65185;21.060;105.826;2023-02-01T05:51:17;101214.72;;;20.47;100.00
76358;BME280;65185;21.060;105.826;2023-02-01T05:53:44;101223.41;;;20.49;100.00
76358;BME280;65185;21.060;105.826;2023-02-01T05:56:11;101213.13;;;20.46;100.00
76358;BME280;65185;21.060;105.826;2023-02-01T05:58:38;101200.91;;;20.44;100.00
76358;BME280;65185;21.060;105.826;2023-02-01T06:01:05;101198.47;;;20.42;100.00
76358;BME280;65185;21.060;105.826;2023-02-01T06:03:32;101185.03;;;20.46;100.00
76358;BME280;65185;21.060;105.826;2023-02-01T06:05:59;101190.00;;;20.44;100.00
76358;BME280;65185;21.060;105.826;2023-02-01T06:08:27;101193.06;;;20.51;100.00
76358;BME280;65185;21.060;105.826;2023-02-01T06:10:59;101180.00;;;20.61;100.00
76358;BME280;65185;21.060;105.826;2023-02-01T06:13:26;101168.75;;;20.63;100.00
76358;BME280;65185;21.060;105.826;2023-02-01T06:15:53;101173.28;;;20.45;100.00
76358;BME280;65185;21.060;105.826;2023-02-01T06:18:25;101167.38;;;20.43;100.00
76358;BME280;65185;21.060;105.826;2023-02-01T06:20:53;101161.78;;;20.48;100.00
76358;BME280;65185;21.060;105.826;2023-02-01T06:23:20;101162.75;;;20.52;100.00
76358;BME280;65185;21.060;105.826;2023-02-01T06:25:57;101153.19;;;20.63;100.00
76358;BME280;65185;21.060;105.826;2023-02-01T06:28:25;101154.19;;;21.07;100.00
76358;BME280;65185;21.060;105.826;2023-02-01T06:30:51;101154.78;;;21.18;100.00
76358;BME280;65185;21.060;105.826;2023-02-01T06:33:18;101153.50;;;20.93;100.00
76358;BME280;65185;21.060;105.826;2023-02-01T06:35:46;101148.84;;;20.93;100.00
76358;BME280;65185;21.060;105.826;2023-02-01T06:38:13;101136.16;;;20.89;100.00
76358;BME280;65185;21.060;105.826;2023-02-01T06:40:41;101135.28;;;20.80;100.00
76358;BME280;65185;21.060;105.826;2023-02-01T06:43:08;101136.06;;;20.71;100.00
76358;BME280;65185;21.060;105.826;2023-02-01T06:45:38;101125.59;;;20.65;100.00
76358;BME280;65185;21.060;105.826;2023-02-01T06:48:08;101125.88;;;20.55;100.00
76358;BME280;65185;21.060;105.826;2023-02-01T06:50:35;101118.50;;;20.55;100.00
76358;BME280;65185;21.060;105.826;2023-02-01T06:53:02;101128.47;;;20.60;100.00
76358;BME280;65185;21.060;105.826;2023-02-01T06:55:29;101114.81;;;20.60;100.00
76358;BME280;65185;21.060;105.826;2023-02-01T06:57:56;101113.84;;;20.56;100.00
76358;BME280;65185;21.060;105.826;2023-02-01T07:00:23;101105.75;;;20.51;100.00
76358;BME280;65185;21.060;105.826;2023-02-01T07:02:51;101106.91;;;20.50;100.00
76358;BME280;65185;21.060;105.826;2023-02-01T07:05:17;101103.09;;;20.59;100.00
76358;BME280;65185;21.060;105.826;2023-02-01T07:07:44;101099.06;;;20.57;100.00
76358;BME280;65185;21.060;105.826;2023-02-01T07:10:11;101102.56;;;20.49;100.00
76358;BME280;65185;21.060;105.826;2023-02-01T07:12:38;101096.81;;;20.50;100.00
76358;BME280;65185;21.060;105.826;2023-02-01T07:15:06;101090.69;;;20.53;100.00
76358;BME280;65185;21.060;105.826;2023-02-01T07:17:33;101089.88;;;20.44;100.00
76358;BME280;65185;21.060;105.826;2023-02-01T07:20:00;101084.94;;;20.55;100.00
76358;BME280;65185;21.060;105.826;2023-02-01T07:22:28;101077.03;;;20.45;100.00
76358;BME280;65185;21.060;105.826;2023-02-01T07:24:55;101080.44;;;20.50;100.00
76358;BME280;65185;21.060;105.826;2023-02-01T07:27:22;101074.25;;;20.36;100.00
76358;BME280;65185;21.060;105.826;2023-02-01T07:29:51;101080.81;;;20.35;100.00
76358;BME280;65185;21.060;105.826;2023-02-01T07:32:18;101079.78;;;20.31;100.00
76358;BME280;65185;21.060;105.826;2023-02-01T07:34:45;101077.94;;;20.40;100.00
76358;BME280;65185;21.060;105.826;2023-02-01T07:37:12;101073.13;;;20.37;100.00
76358;BME280;65185;21.060;105.826;2023-02-01T07:39:39;101071.00;;;20.34;100.00
76358;BME280;65185;21.060;105.826;2023-02-01T07:42:06;101066.47;;;20.29;100.00
76358;BME280;65185;21.060;105.826;2023-02-01T07:44:33;101071.34;;;20.32;100.00
76358;BME280;65185;21.060;105.826;2023-02-01T07:47:00;101070.81;;;20.30;100.00
76358;BME280;65185;21.060;105.826;2023-02-01T07:49:27;101070.78;;;20.22;100.00
76358;BME280;65185;21.060;105.826;2023-02-01T07:51:54;101069.97;;;20.21;100.00
76358;BME280;65185;21.060;105.826;2023-02-01T07:54:22;101066.91;;;20.23;100.00
76358;BME280;65185;21.060;105.826;2023-02-01T07:56:49;101063.88;;;20.24;100.00
76358;BME280;65185;21.060;105.826;2023-02-01T07:59:20;101059.63;;;20.32;100.00
76358;BME280;65185;21.060;105.826;2023-02-01T08:01:47;101059.63;;;20.32;100.00
76358;BME280;65185;21.060;105.826;2023-02-01T08:04:14;101057.59;;;20.24;100.00
76358;BME280;65185;21.060;105.826;2023-02-01T08:06:42;101056.94;;;20.18;100.00
76358;BME280;65185;21.060;105.826;2023-02-01T08:09:09;101050.53;;;20.23;100.00
76358;BME280;65185;21.060;105.826;2023-02-01T08:11:37;101050.69;;;20.18;100.00
76358;BME280;65185;21.060;105.826;2023-02-01T08:14:05;101053.41;;;20.18;100.00
76358;BME280;65185;21.060;105.826;2023-02-01T08:16:33;101054.44;;;20.30;100.00
76358;BME280;65185;21.060;105.826;2023-02-01T08:19:01;101052.59;;;20.40;100.00
76358;BME280;65185;21.060;105.826;2023-02-01T08:21:42;101058.97;;;20.35;100.00
76358;BME280;65185;21.060;105.826;2023-02-01T08:24:20;101057.59;;;20.24;100.00
76358;BME280;65185;21.060;105.826;2023-02-01T08:26:47;101055.44;;;20.34;100.00
76358;BME280;65185;21.060;105.826;2023-02-01T08:29:14;101060.78;;;20.40;100.00
76358;BME280;65185;21.060;105.826;2023-02-01T08:31:47;101054.56;;;20.25;100.00
76358;BME280;65185;21.060;105.826;2023-02-01T08:34:20;101065.75;;;20.15;100.00
76358;BME280;65185;21.060;105.826;2023-02-01T08:36:47;101061.72;;;20.13;100.00
76358;BME280;65185;21.060;105.826;2023-02-01T08:39:14;101060.47;;;20.19;100.00
76358;BME280;65185;21.060;105.826;2023-02-01T08:41:41;101058.31;;;20.07;100.00
76358;BME280;65185;21.060;105.826;2023-02-01T08:44:28;101062.25;;;20.23;100.00
76358;BME280;65185;21.060;105.826;2023-02-01T08:46:55;101061.91;;;20.16;100.00
76358;BME280;65185;21.060;105.826;2023-02-01T08:49:22;101066.34;;;20.12;100.00
76358;BME280;65185;21.060;105.826;2023-02-01T08:51:49;101068.59;;;20.10;100.00
76358;BME280;65185;21.060;105.826;2023-02-01T08:54:15;101068.28;;;20.12;100.00
76358;BME280;65185;21.060;105.826;2023-02-01T08:56:42;101070.13;;;20.25;100.00
76358;BME280;65185;21.060;105.826;2023-02-01T08:59:09;101074.34;;;20.31;100.00
76358;BME280;65185;21.060;105.826;2023-02-01T09:01:36;101076.00;;;20.32;100.00
76358;BME280;65185;21.060;105.826;2023-02-01T09:04:03;101080.50;;;20.14;100.00
76358;BME280;65185;21.060;105.826;2023-02-01T09:06:30;101077.22;;;20.04;100.00
76358;BME280;65185;21.060;105.826;2023-02-01T09:08:57;101075.84;;;20.15;100.00
76358;BME280;65185;21.060;105.826;2023-02-01T09:11:24;101073.84;;;20.07;100.00
76358;BME280;65185;21.060;105.826;2023-02-01T09:13:51;101073.69;;;20.03;100.00
76358;BME280;65185;21.060;105.826;2023-02-01T09:16:18;101071.59;;;20.00;100.00
76358;BME280;65185;21.060;105.826;2023-02-01T09:18:49;101081.38;;;20.01;100.00
76358;BME280;65185;21.060;105.826;2023-02-01T09:21:16;101077.81;;;20.01;100.00
76358;BME280;65185;21.060;105.826;2023-02-01T09:23:43;101083.63;;;19.99;100.00
76358;BME280;65185;21.060;105.826;2023-02-01T09:26:11;101088.56;;;19.97;100.00
76358;BME280;65185;21.060;105.826;2023-02-01T09:28:38;101088.13;;;20.04;100.00
76358;BME280;65185;21.060;105.826;2023-02-01T09:31:05;101088.72;;;20.01;100.00
76358;BME280;65185;21.060;105.826;2023-02-01T09:33:32;101099.16;;;19.99;100.00
76358;BME280;65185;21.060;105.826;2023-02-01T09:36:01;101087.94;;;20.00;100.00
76358;BME280;65185;21.060;105.826;2023-02-01T09:38:28;101092.38;;;19.96;100.00
76358;BME280;65185;21.060;105.826;2023-02-01T09:40:56;101101.25;;;20.02;100.00
76358;BME280;65185;21.060;105.826;2023-02-01T09:43:54;101099.47;;;19.97;100.00
76358;BME280;65185;21.060;105.826;2023-02-01T09:46:28;101105.34;;;19.90;100.00
76358;BME280;65185;21.060;105.826;2023-02-01T09:48:59;101103.72;;;19.89;100.00
76358;BME280;65185;21.060;105.826;2023-02-01T09:51:53;101111.41;;;19.87;100.00
76358;BME280;65185;21.060;105.826;2023-02-01T09:54:42;101103.41;;;19.91;100.00
76358;BME280;65185;21.060;105.826;2023-02-01T09:57:40;101104.06;;;19.88;100.00
76358;BME280;65185;21.060;105.826;2023-02-01T10:00:20;101109.50;;;19.88;100.00
76358;BME280;65185;21.060;105.826;2023-02-01T10:02:50;101115.56;;;19.85;100.00
76358;BME280;65185;21.060;105.826;2023-02-01T10:08:45;101114.53;;;19.95;100.00
76358;BME280;65185;21.060;105.826;2023-02-01T10:14:11;101124.25;;;19.87;100.00
76358;BME280;65185;21.060;105.826;2023-02-01T10:28:38;101133.53;;;19.86;100.00
76358;BME280;65185;21.060;105.826;2023-02-01T10:31:08;101142.41;;;19.91;100.00
76358;BME280;65185;21.060;105.826;2023-02-01T10:33:45;101140.91;;;19.85;100.00
76358;BME280;65185;21.060;105.826;2023-02-01T10:36:28;101141.41;;;19.87;100.00
76358;BME280;65185;21.060;105.826;2023-02-01T10:39:01;101151.63;;;19.82;100.00
76358;BME280;65185;21.060;105.826;2023-02-01T10:41:38;101149.50;;;19.79;100.00
76358;BME280;65185;21.060;105.826;2023-02-01T10:44:21;101146.75;;;19.79;100.00
76358;BME280;65185;21.060;105.826;2023-02-01T10:46:51;101159.38;;;19.88;100.00
76358;BME280;65185;21.060;105.826;2023-02-01T10:49:33;101151.69;;;19.90;100.00
76358;BME280;65185;21.060;105.826;2023-02-01T10:52:14;101168.78;;;19.82;100.00
76358;BME280;65185;21.060;105.826;2023-02-01T10:54:42;101171.00;;;19.80;100.00
76358;BME280;65185;21.060;105.826;2023-02-01T10:57:22;101169.50;;;19.74;100.00
76358;BME280;65185;21.060;105.826;2023-02-01T10:59:52;101168.78;;;19.82;100.00
76358;BME280;65185;21.060;105.826;2023-02-01T11:02:32;101174.94;;;19.74;100.00
76358;BME280;65185;21.060;105.826;2023-02-01T11:05:08;101181.03;;;19.71;100.00
76358;BME280;65185;21.060;105.826;2023-02-01T11:07:37;101179.69;;;19.69;100.00
76358;BME280;65185;21.060;105.826;2023-02-01T11:10:06;101175.25;;;19.73;100.00
76358;BME280;65185;21.060;105.826;2023-02-01T11:12:37;101187.16;;;19.77;100.00
76358;BME280;65185;21.060;105.826;2023-02-01T11:15:23;101179.91;;;19.72;100.00
76358;BME280;65185;21.060;105.826;2023-02-01T11:17:52;101180.69;;;19.73;100.00
76358;BME280;65185;21.060;105.826;2023-02-01T11:22:58;101185.25;;;19.64;100.00
76358;BME280;65185;21.060;105.826;2023-02-01T11:25:26;101186.59;;;19.66;100.00
76358;BME280;65185;21.060;105.826;2023-02-01T11:27:55;101183.94;;;19.75;100.00
76358;BME280;65185;21.060;105.826;2023-02-01T11:30:43;101190.13;;;19.67;100.00
76358;BME280;65185;21.060;105.826;2023-02-01T11:33:19;101192.50;;;19.68;100.00
76358;BME280;65185;21.060;105.826;2023-02-01T11:35:52;101193.72;;;19.62;100.00
76358;BME280;65185;21.060;105.826;2023-02-01T11:38:30;101203.22;;;19.65;100.00
76358;BME280;65185;21.060;105.826;2023-02-01T11:41:22;101199.59;;;19.69;100.00
76358;BME280;65185;21.060;105.826;2023-02-01T11:44:00;101199.50;;;19.61;100.00
76358;BME280;65185;21.060;105.826;2023-02-01T11:46:40;101203.53;;;19.63;100.00
76358;BME280;65185;21.060;105.826;2023-02-01T11:49:27;101210.69;;;19.59;100.00
76358;BME280;65185;21.060;105.826;2023-02-01T11:52:08;101217.16;;;19.63;100.00
76358;BME280;65185;21.060;105.826;2023-02-01T12:05:50;101226.44;;;19.62;100.00
76358;BME280;65185;21.060;105.826;2023-02-01T12:22:59;101238.44;;;19.47;100.00
76358;BME280;65185;21.060;105.826;2023-02-01T12:28:22;101258.22;;;19.80;100.00
76358;BME280;65185;21.060;105.826;2023-02-01T12:49:57;101292.84;;;19.52;100.00
76358;BME280;65185;21.060;105.826;2023-02-01T12:52:50;101302.44;;;19.50;100.00
76358;BME280;65185;21.060;105.826;2023-02-01T12:55:35;101300.81;;;19.49;100.00
76358;BME280;65185;21.060;105.826;2023-02-01T12:58:26;101303.53;;;19.49;100.00
76358;BME280;65185;21.060;105.826;2023-02-01T13:01:05;101312.44;;;19.55;100.00
76358;BME280;65185;21.060;105.826;2023-02-01T13:06:51;101311.81;;;19.85;100.00
76358;BME280;65185;21.060;105.826;2023-02-01T13:09:23;101322.41;;;19.73;100.00
76358;BME280;65185;21.060;105.826;2023-02-01T13:11:58;101331.81;;;19.80;100.00
76358;BME280;65185;21.060;105.826;2023-02-01T13:14:32;101332.09;;;19.79;100.00
76358;BME280;65185;21.060;105.826;2023-02-01T13:23:27;101327.97;;;19.81;100.00
76358;BME280;65185;21.060;105.826;2023-02-01T13:25:55;101341.09;;;19.79;100.00
76358;BME280;65185;21.060;105.826;2023-02-01T13:43:28;101358.25;;;19.66;100.00
76358;BME280;65185;21.060;105.826;2023-02-01T13:46:04;101355.44;;;19.71;100.00
76358;BME280;65185;21.060;105.826;2023-02-01T13:51:41;101361.13;;;19.56;100.00
76358;BME280;65185;21.060;105.826;2023-02-01T13:54:30;101364.56;;;19.48;100.00
76358;BME280;65185;21.060;105.826;2023-02-01T13:56:58;101371.13;;;19.47;100.00
76358;BME280;65185;21.060;105.826;2023-02-01T14:00:45;101370.16;;;19.70;100.00
76358;BME280;65185;21.060;105.826;2023-02-01T14:13:39;101384.88;;;19.56;100.00
76358;BME280;65185;21.060;105.826;2023-02-01T14:16:14;101385.16;;;19.54;100.00
76358;BME280;65185;21.060;105.826;2023-02-01T14:23:59;101384.69;;;19.79;100.00
76358;BME280;65185;21.060;105.826;2023-02-01T14:26:55;101388.75;;;19.82;100.00
76358;BME280;65185;21.060;105.826;2023-02-01T14:29:35;101388.53;;;19.78;100.00
76358;BME280;65185;21.060;105.826;2023-02-01T14:32:18;101396.22;;;19.76;100.00
76358;BME280;65185;21.060;105.826;2023-02-01T14:34:52;101413.03;;;19.65;100.00
76358;BME280;65185;21.060;105.826;2023-02-01T14:39:55;101399.94;;;19.67;100.00
76358;BME280;65185;21.060;105.826;2023-02-01T14:50:46;101402.13;;;19.32;100.00
76358;BME280;65185;21.060;105.826;2023-02-01T14:53:22;101402.34;;;19.36;100.00
76358;BME280;65185;21.060;105.826;2023-02-01T14:56:06;101404.53;;;19.34;100.00
76358;BME280;65185;21.060;105.826;2023-02-01T15:01:48;101418.69;;;19.36;100.00
76358;BME280;65185;21.060;105.826;2023-02-01T15:04:18;101425.56;;;19.33;100.00
76358;BME280;65185;21.060;105.826;2023-02-01T15:07:09;101422.59;;;19.30;100.00
76358;BME280;65185;21.060;105.826;2023-02-01T15:09:48;101421.69;;;19.34;100.00
76358;BME280;65185;21.060;105.826;2023-02-01T15:12:18;101422.31;;;19.31;100.00
76358;BME280;65185;21.060;105.826;2023-02-01T15:15:23;101424.13;;;19.36;100.00
76358;BME280;65185;21.060;105.826;2023-02-01T15:17:55;101427.66;;;19.36;100.00
76358;BME280;65185;21.060;105.826;2023-02-01T15:20:32;101431.78;;;19.34;100.00
76358;BME280;65185;21.060;105.826;2023-02-01T15:23:02;101435.63;;;19.33;100.00
76358;BME280;65185;21.060;105.826;2023-02-01T15:25:36;101430.19;;;19.33;100.00
76358;BME280;65185;21.060;105.826;2023-02-01T15:28:05;101439.47;;;19.32;100.00
76358;BME280;65185;21.060;105.826;2023-02-01T15:30:34;101434.59;;;19.29;100.00
76358;BME280;65185;21.060;105.826;2023-02-01T15:33:08;101435.41;;;19.29;100.00
76358;BME280;65185;21.060;105.826;2023-02-01T15:35:46;101444.38;;;19.30;100.00
76358;BME280;65185;21.060;105.826;2023-02-01T15:41:04;101443.88;;;19.28;100.00
76358;BME280;65185;21.060;105.826;2023-02-01T15:43:35;101444.38;;;19.30;100.00
76358;BME280;65185;21.060;105.826;2023-02-01T15:46:10;101455.19;;;19.35;100.00
76358;BME280;65185;21.060;105.826;2023-02-01T15:48:56;101453.88;;;19.32;100.00
76358;BME280;65185;21.060;105.826;2023-02-01T15:51:25;101461.53;;;19.30;100.00
76358;BME280;65185;21.060;105.826;2023-02-01T15:53:54;101464.88;;;19.27;100.00